Aviation Digital Data Service (ADDS)

Output produced by METARs form (0430 UTC 22 September 2017)
found at http://www.aviationweather.gov/adds/metars/
 
KJAC 220212Z 2202/2224 36007KT 6SM -RA SCT015 BKN025 
     TEMPO 2202/2205 3SM -RA BKN015 
     FM221800 22008KT P6SM -RA OVC030 AMD LTD TO CLD VIS AND WIND
       
KJAN 212320Z 2200/2224 00000KT P6SM SKC 
     FM222000 03003KT P6SM VCTS SCT050CB
       
KJAX 212340Z 2200/2224 07003KT P6SM FEW035 SCT150 BKN250 
     FM221300 06006KT P6SM SCT020 BKN200 
     FM221600 06010KT P6SM BKN030 BKN070 
     FM222000 07013G19KT P6SM BKN045
       
KJBR 212320Z 2200/2224 VRB03KT P6SM FEW250 
     TEMPO 2209/2212 5SM BR 
     FM221600 09005KT P6SM SCT045
       
KJFK 220247Z 2203/2306 01012KT P6SM SCT150 BKN250 
     FM221300 36015G21KT P6SM SCT040 BKN100 
     FM230000 36012KT P6SM SCT040 BKN150
       
KJER 212330Z 2200/2224 22010KT P6SM SCT025 BKN050 
     FM220300 21007KT P6SM OVC035 
     FM221200 24011KT P6SM SCT015 OVC035 
     TEMPO 2212/2216 BKN015 OVC035 
     FM221800 24011KT P6SM BKN050
       
KJHW 220253Z 2203/2224 01004KT P6SM SCT250 
     FM220700 VRB03KT 1SM BR SCT007 
     FM220900 VRB03KT 1/2SM FG BKN007 
     FM221300 00000KT 4SM BR BKN007 
     FM221500 00000KT 4SM BR FEW250 
     FM221600 00000KT P6SM SKC 
     FM221800 01004KT P6SM SCT090 AMD LTD TO CLD VIS AND WIND
       
KJMS 220221Z 2202/2224 13007KT P6SM FEW070 SCT200 
     FM220300 35007KT P6SM SKC 
     FM221100 02011KT P6SM VCSH SCT025 BKN035 
     FM221500 04013G21KT P6SM BKN025 OVC035 
     FM222000 04012G17KT P6SM OVC010
       
KJST 220333Z 2204/2224 VRB02KT P6SM SCT250 
     FM220900 VRB02KT P6SM VCFG SCT250 
     FM221300 34004KT P6SM SCT200